Time;durP1;ratioP1;P1;durP2;ratioP2;P2;SDS_P1;SDS_P2;PMS_P1;PMS_P2;Temp;Humidity;BMP_temperature;BMP_pressure;BME280_temperature;BME280_humidity;BME280_pressure;Samples;Min_cycle;Max_cycle;Signal;HPM_P1;HPM_P2
2022/11/03 00:02:16;;;;;;;16.13;2.72;;;;;;;12.84;70.06;101497.81;5004180;28;20728;-63
2022/11/03 00:04:42;;;;;;;17.15;3.00;;;;;;;12.83;69.94;101485.75;5003886;28;20059;-63
2022/11/03 00:07:08;;;;;;;11.88;2.72;;;;;;;12.82;70.10;101481.41;5003032;28;20029;-63
2022/11/03 00:09:33;;;;;;;11.07;2.47;;;;;;;12.84;69.98;101477.16;5003220;28;20104;-63
2022/11/03 00:12:00;;;;;;;10.50;2.55;;;;;;;12.83;70.09;101470.25;5000981;28;20095;-63
2022/11/03 00:14:26;;;;;;;13.27;2.45;;;;;;;12.83;70.19;101479.72;4999042;28;20026;-63
2022/11/03 00:16:52;;;;;;;13.57;2.60;;;;;;;12.81;70.21;101473.63;4988636;28;20381;-63
2022/11/03 00:19:18;;;;;;;14.30;2.83;;;;;;;12.83;70.01;101471.97;5001720;28;20373;-63
2022/11/03 00:21:44;;;;;;;14.40;2.72;;;;;;;12.84;70.26;101463.38;5003825;28;20029;-63
2022/11/03 00:24:09;;;;;;;17.90;3.33;;;;;;;12.83;70.26;101465.09;4985687;28;20022;-63
2022/11/03 00:26:35;;;;;;;13.85;2.50;;;;;;;12.85;70.29;101465.13;5000655;28;20037;-63
2022/11/03 00:29:07;;;;;;;14.55;2.45;;;;;;;12.82;70.42;101462.47;5002731;28;20048;-63
2022/11/03 00:31:34;;;;;;;13.23;2.22;;;;;;;12.81;70.58;101459.03;5001494;28;20500;-63
2022/11/03 00:34:01;;;;;;;9.68;2.13;;;;;;;12.78;70.59;101464.09;5002088;28;20034;-63
2022/11/03 00:36:32;;;;;;;12.57;2.30;;;;;;;12.81;70.43;101446.13;4999497;28;20042;-63
2022/11/03 00:38:57;;;;;;;13.18;2.83;;;;;;;12.83;70.44;101448.75;5000920;28;20053;-63
2022/11/03 00:41:24;;;;;;;11.98;2.17;;;;;;;12.85;70.14;101444.47;5002478;28;20833;-63
2022/11/03 00:43:51;;;;;;;15.00;2.40;;;;;;;12.82;70.57;101434.97;5001239;28;20022;-63
2022/11/03 00:46:18;;;;;;;12.35;2.70;;;;;;;12.84;70.35;101425.53;5000113;28;20116;-63
2022/11/03 00:48:43;;;;;;;11.70;2.15;;;;;;;12.83;70.35;101428.97;5000337;28;20381;-63
2022/11/03 00:51:20;;;;;;;14.30;2.60;;;;;;;12.86;70.41;101412.66;5001746;28;20095;-63
2022/11/03 00:53:51;;;;;;;12.98;2.22;;;;;;;12.84;70.36;101425.53;4996559;28;20019;-63
2022/11/03 00:56:34;;;;;;;13.43;2.25;;;;;;;12.87;70.40;101409.28;4999027;28;20045;-64
2022/11/03 00:59:01;;;;;;;10.90;2.20;;;;;;;12.83;70.43;101410.03;5000768;28;20057;-64
2022/11/03 01:01:30;;;;;;;11.68;2.10;;;;;;;12.86;70.24;101411.00;4978079;28;20540;-64
2022/11/03 01:06:49;;;;;;;12.07;2.33;;;;;;;12.86;70.31;101392.94;5001289;28;20040;-64
2022/11/03 01:09:15;;;;;;;11.73;2.50;;;;;;;12.86;70.47;101397.19;5001442;28;20026;-63
2022/11/03 01:11:44;;;;;;;11.38;2.20;;;;;;;12.85;70.66;101396.31;5004830;28;20038;-63
2022/11/03 01:14:13;;;;;;;16.17;2.65;;;;;;;12.89;70.28;101397.28;5002747;28;20021;-64
2022/11/03 01:16:38;;;;;;;13.65;2.63;;;;;;;12.88;70.57;101399.00;5003747;28;20061;-63
2022/11/03 01:19:04;;;;;;;10.15;2.00;;;;;;;12.87;70.63;101389.50;4998918;28;20120;-63
2022/11/03 01:21:30;;;;;;;16.80;2.67;;;;;;;12.86;71.15;101385.19;4989467;28;20022;-63
2022/11/03 01:23:55;;;;;;;18.20;2.55;;;;;;;12.87;70.58;101384.34;5001379;28;20034;-64
2022/11/03 01:26:21;;;;;;;12.63;2.47;;;;;;;12.87;70.60;101378.31;5003462;28;20021;-63
2022/11/03 01:28:47;;;;;;;9.77;1.98;;;;;;;12.90;70.79;101378.38;5003205;28;20084;-64
2022/11/03 01:31:17;;;;;;;10.70;2.40;;;;;;;12.88;70.89;101380.94;5004645;28;20033;-63
2022/11/03 01:33:44;;;;;;;12.40;2.10;;;;;;;12.87;70.87;101368.88;5001935;28;20026;-63
2022/11/03 01:36:12;;;;;;;11.98;2.60;;;;;;;12.87;70.76;101368.88;5002944;28;20113;-63
2022/11/03 01:38:38;;;;;;;11.43;2.22;;;;;;;12.86;70.76;101361.97;5003974;28;20044;-63
2022/11/03 01:41:06;;;;;;;13.50;2.50;;;;;;;12.90;70.85;101357.72;4999758;28;20048;-63
2022/11/03 01:43:32;;;;;;;8.15;1.80;;;;;;;12.89;70.93;101358.56;5001744;28;20563;-64
2022/11/03 01:46:22;;;;;;;8.88;2.50;;;;;;;12.92;71.08;101355.19;5001281;28;20053;-63
2022/11/03 01:48:56;;;;;;;14.00;2.40;;;;;;;12.91;70.93;101344.00;5001333;28;20030;-63
2022/11/03 01:51:23;;;;;;;15.77;2.45;;;;;;;12.89;71.09;101340.50;5000475;28;20452;-63
2022/11/03 01:53:51;;;;;;;13.10;2.13;;;;;;;12.89;71.32;101343.09;5003631;28;20481;-64
2022/11/03 01:56:18;;;;;;;12.88;2.70;;;;;;;12.91;71.28;101346.56;5002145;28;20033;-63
2022/11/03 01:58:46;;;;;;;10.77;2.10;;;;;;;12.91;71.42;101333.66;5000744;28;20079;-63
2022/11/03 02:01:11;;;;;;;12.00;2.40;;;;;;;12.91;71.45;101330.22;5001724;28;20029;-63
2022/11/03 02:03:44;;;;;;;13.60;2.38;;;;;;;12.92;71.54;101334.53;4984532;28;20041;-63
2022/11/03 02:06:10;;;;;;;16.13;2.97;;;;;;;12.92;71.70;101330.25;5001664;28;20030;-64
2022/11/03 02:08:43;;;;;;;12.15;2.63;;;;;;;12.94;71.67;101319.97;4988670;28;20056;-63
2022/11/03 02:13:52;;;;;;;10.55;1.92;;;;;;;12.92;71.77;101319.03;5001520;28;20072;-64
2022/11/03 02:16:20;;;;;;;13.95;2.88;;;;;;;12.94;71.81;101322.56;5001170;28;20547;-63
2022/11/03 02:18:46;;;;;;;12.68;2.60;;;;;;;12.91;72.18;101313.00;5001491;28;20029;-63
2022/11/03 02:21:37;;;;;;;11.02;2.08;;;;;;;12.95;72.11;101312.25;5000270;28;20108;-63
2022/11/03 02:24:10;;;;;;;12.00;2.20;;;;;;;12.94;72.21;101307.94;4997913;28;20033;-63
2022/11/03 02:26:36;;;;;;;10.48;2.33;;;;;;;12.95;72.14;101291.63;5000719;28;20038;-63
2022/11/03 02:29:01;;;;;;;13.00;2.33;;;;;;;12.91;72.37;101294.94;5003016;28;20393;-63
2022/11/03 02:31:40;;;;;;;8.85;2.00;;;;;;;12.95;72.33;101289.03;5004008;28;20042;-63
2022/11/03 02:34:31;;;;;;;14.43;2.50;;;;;;;13.00;72.06;101292.63;4997819;28;20030;-63
2022/11/03 02:37:20;;;;;;;12.70;2.33;;;;;;;12.98;72.18;101291.69;4994620;28;20300;-63
2022/11/03 02:39:51;;;;;;;12.85;2.50;;;;;;;12.95;71.97;101276.13;5002260;28;20018;-63
2022/11/03 02:42:19;;;;;;;12.20;2.33;;;;;;;12.94;72.61;101276.97;4998377;28;20029;-63
2022/11/03 02:44:46;;;;;;;10.93;2.28;;;;;;;12.93;72.62;101269.19;4999799;28;20618;-63
2022/11/03 02:47:13;;;;;;;12.30;2.05;;;;;;;12.94;72.59;101260.63;5002595;28;20026;-63
2022/11/03 02:49:46;;;;;;;11.05;2.22;;;;;;;12.96;72.61;101269.25;5001149;28;20030;-63
2022/11/03 02:52:41;;;;;;;13.90;2.28;;;;;;;12.97;72.20;101252.94;5001526;28;20476;-63
2022/11/03 02:55:31;;;;;;;17.27;2.50;;;;;;;12.96;72.45;101252.06;4999450;28;20038;-63
2022/11/03 02:58:26;;;;;;;10.43;2.22;;;;;;;12.99;72.43;101248.69;5003712;28;20113;-63
2022/11/03 03:01:17;;;;;;;14.20;2.70;;;;;;;12.94;72.87;101252.88;5000876;28;20144;-63
2022/11/03 03:03:58;;;;;;;10.60;2.17;;;;;;;12.95;72.60;101234.81;5001742;28;20038;-63
2022/11/03 03:06:35;;;;;;;15.13;2.40;;;;;;;12.89;73.20;101242.44;5000985;28;20032;-63
2022/11/03 03:09:05;;;;;;;11.77;2.20;;;;;;;12.91;72.96;101238.16;4985032;28;20065;-63
2022/11/03 03:11:38;;;;;;;12.07;2.20;;;;;;;12.91;73.15;101221.81;4999883;28;20025;-63
2022/11/03 03:14:08;;;;;;;10.70;2.25;;;;;;;12.93;73.05;101220.16;5002307;28;20040;-63
2022/11/03 03:16:41;;;;;;;10.57;2.30;;;;;;;12.90;73.43;101218.34;5002564;28;20117;-63
2022/11/03 03:19:21;;;;;;;12.15;2.22;;;;;;;12.95;73.07;101221.06;4996071;28;20508;-63
2022/11/03 03:21:51;;;;;;;13.82;2.33;;;;;;;12.92;73.55;101219.25;5000706;28;20120;-63
2022/11/03 03:25:05;;;;;;;12.30;2.15;;;;;;;12.97;73.10;101217.66;5000546;28;20014;-63
2022/11/03 03:27:33;;;;;;;15.48;2.13;;;;;;;12.93;73.39;101205.53;4953756;28;20038;-63
2022/11/03 03:30:06;;;;;;;7.22;2.17;;;;;;;12.94;73.50;101194.38;5000620;28;20030;-63
2022/11/03 03:32:37;;;;;;;12.25;2.33;;;;;;;12.94;73.53;101203.81;4998230;28;20739;-63
2022/11/03 03:35:06;;;;;;;12.10;2.42;;;;;;;12.93;73.57;101200.38;4999384;28;20125;-63
2022/11/03 03:37:36;;;;;;;16.55;2.65;;;;;;;12.88;73.76;101187.34;5002606;28;20036;-63
2022/11/03 03:40:06;;;;;;;12.73;2.17;;;;;;;12.92;73.80;101190.00;4999159;28;20026;-63
2022/11/03 03:42:35;;;;;;;11.30;2.10;;;;;;;12.89;73.84;101183.94;5002053;28;20382;-63
2022/11/03 03:45:01;;;;;;;10.73;2.20;;;;;;;12.88;73.96;101192.50;5002652;28;20068;-63
2022/11/03 03:47:33;;;;;;;9.23;2.30;;;;;;;12.91;73.73;101189.13;5000455;28;20033;-63
2022/11/03 03:50:00;;;;;;;12.15;2.47;;;;;;;12.89;74.09;101180.47;4998178;28;20130;-63
2022/11/03 03:52:26;;;;;;;10.73;2.28;;;;;;;12.87;73.92;101185.63;5000331;28;20061;-63
2022/11/03 03:54:53;;;;;;;13.88;2.00;;;;;;;12.86;74.09;101176.13;4998624;28;20036;-63
2022/11/03 03:57:22;;;;;;;9.15;2.00;;;;;;;12.88;74.37;101168.41;4998036;28;20054;-63
2022/11/03 03:59:47;;;;;;;11.82;2.10;;;;;;;12.88;74.43;101169.28;4998233;28;20472;-63
2022/11/03 04:02:13;;;;;;;10.20;2.35;;;;;;;12.86;74.39;101165.81;5001079;28;20041;-63
2022/11/03 04:04:39;;;;;;;10.65;2.20;;;;;;;12.87;74.55;101167.53;5000998;28;20112;-63
2022/11/03 04:09:49;;;;;;;15.52;2.42;;;;;;;12.82;74.74;101153.66;4999598;28;20156;-63
2022/11/03 04:23:14;;;;;;;11.93;2.30;;;;;;;12.87;75.28;101146.91;5001195;28;20399;-63
2022/11/03 04:25:41;;;;;;;11.82;2.55;;;;;;;12.86;75.53;101150.31;5001017;28;20030;-63
2022/11/03 04:28:11;;;;;;;10.95;2.45;;;;;;;12.86;75.36;101147.75;4997572;28;20119;-63
2022/11/03 04:30:37;;;;;;;10.68;2.00;;;;;;;12.85;75.58;101140.81;5003741;28;20034;-63
2022/11/03 04:33:10;;;;;;;12.23;2.22;;;;;;;12.89;75.86;101141.75;5000051;28;20465;-63
2022/11/03 04:35:35;;;;;;;6.93;1.95;;;;;;;12.88;76.02;101137.44;5000156;28;20552;-64
2022/11/03 04:38:03;;;;;;;12.45;2.40;;;;;;;12.88;76.21;101137.44;5002416;28;20044;-64
2022/11/03 04:40:29;;;;;;;11.57;2.40;;;;;;;12.90;75.85;101133.19;5005153;28;20029;-64
2022/11/03 04:42:54;;;;;;;12.60;2.40;;;;;;;12.89;76.25;101132.31;5007548;28;20037;-63
2022/11/03 04:45:29;;;;;;;8.88;1.92;;;;;;;12.91;76.16;101132.34;5005514;28;20108;-63
2022/11/03 04:47:57;;;;;;;15.50;2.47;;;;;;;12.88;76.51;101125.41;5003288;28;20026;-63
2022/11/03 04:50:23;;;;;;;17.30;2.20;;;;;;;12.88;76.59;101128.00;5006110;28;20030;-63
2022/11/03 04:52:57;;;;;;;10.77;2.17;;;;;;;12.91;76.49;101122.00;4989765;28;20084;-63
2022/11/03 04:55:23;;;;;;;14.13;2.65;;;;;;;12.87;77.00;101123.69;5004479;28;20058;-63
2022/11/03 04:57:56;;;;;;;10.57;2.30;;;;;;;12.90;77.16;101120.28;5002842;28;20034;-64
2022/11/03 05:00:22;;;;;;;11.82;2.20;;;;;;;12.91;77.08;101119.44;5005330;28;20116;-64
2022/11/03 05:02:49;;;;;;;11.73;2.22;;;;;;;12.88;76.89;101109.06;5007394;28;20440;-63
2022/11/03 05:05:25;;;;;;;9.32;2.10;;;;;;;12.92;77.27;101103.09;5003736;28;20028;-63
2022/11/03 05:07:54;;;;;;;10.82;1.90;;;;;;;12.91;77.51;101097.91;5003823;28;20058;-63
2022/11/03 05:10:28;;;;;;;10.32;2.28;;;;;;;12.94;77.36;101106.63;5004728;28;20025;-63
2022/11/03 05:12:55;;;;;;;7.43;2.00;;;;;;;12.93;77.54;101086.81;5004646;28;20502;-63
2022/11/03 05:15:29;;;;;;;10.45;2.20;;;;;;;12.94;77.52;101085.09;5006321;28;20026;-63
2022/11/03 05:17:55;;;;;;;13.57;2.38;;;;;;;12.91;77.86;101092.75;5003824;28;20128;-63
2022/11/03 05:20:47;;;;;;;12.93;2.45;;;;;;;12.97;77.38;101090.31;5004673;28;20029;-63
2022/11/03 05:23:13;;;;;;;9.43;2.08;;;;;;;12.91;78.04;101091.03;5003783;28;20033;-63
2022/11/03 05:25:44;;;;;;;13.75;2.13;;;;;;;12.89;78.13;101077.25;5001899;28;20080;-63
2022/11/03 05:28:20;;;;;;;9.70;2.20;;;;;;;12.93;78.15;101075.63;5004625;28;20032;-63
2022/11/03 05:30:47;;;;;;;9.55;2.08;;;;;;;12.93;78.23;101070.47;5001817;28;20042;-64
2022/11/03 05:33:25;;;;;;;9.93;2.13;;;;;;;12.94;78.30;101067.03;5000397;28;20037;-63
2022/11/03 05:35:51;;;;;;;13.98;2.60;;;;;;;12.91;78.61;101060.06;5002116;28;20151;-63
2022/11/03 05:38:19;;;;;;;10.05;2.10;;;;;;;12.92;78.42;101066.09;4998029;28;20846;-64
2022/11/03 05:40:47;;;;;;;9.18;2.22;;;;;;;12.91;78.62;101059.19;4999274;28;20072;-63
2022/11/03 05:43:13;;;;;;;13.05;2.17;;;;;;;12.94;79.16;101059.28;5003875;28;20049;-63
2022/11/03 05:45:39;;;;;;;10.68;2.25;;;;;;;12.93;78.97;101054.97;5002840;28;20053;-64
2022/11/03 05:48:15;;;;;;;9.43;2.08;;;;;;;12.96;79.00;101044.69;5002207;28;20034;-63
2022/11/03 05:50:41;;;;;;;10.43;2.38;;;;;;;12.95;79.35;101043.81;5004599;28;20075;-63
2022/11/03 05:53:29;;;;;;;9.07;2.15;;;;;;;12.95;79.55;101035.22;5000042;28;20061;-63
2022/11/03 05:55:57;;;;;;;11.73;2.30;;;;;;;12.99;79.67;101037.03;5003456;28;20021;-63
2022/11/03 05:58:31;;;;;;;12.35;2.10;;;;;;;12.97;79.62;101031.81;5004452;28;20038;-63
2022/11/03 06:00:59;;;;;;;11.98;2.38;;;;;;;12.98;79.91;101037.84;5007592;28;20080;-63
2022/11/03 06:03:28;;;;;;;11.63;2.53;;;;;;;12.98;79.97;101035.25;4989398;28;20550;-63
2022/11/03 06:05:55;;;;;;;15.52;2.55;;;;;;;12.96;80.45;101024.03;4993874;28;20592;-63
2022/11/03 06:08:24;;;;;;;9.23;2.35;;;;;;;12.98;80.18;101022.34;5003746;28;20488;-63
2022/11/03 06:10:57;;;;;;;12.45;2.38;;;;;;;12.97;80.37;101018.03;5004838;28;20395;-63
2022/11/03 06:13:36;;;;;;;11.43;2.20;;;;;;;13.00;80.08;101018.13;5001427;28;20026;-63
2022/11/03 06:16:05;;;;;;;9.85;2.42;;;;;;;12.96;80.52;101017.16;5003466;28;20116;-63
2022/11/03 06:18:35;;;;;;;10.35;2.25;;;;;;;12.97;80.69;101012.88;5004529;28;20105;-63
2022/11/03 06:21:06;;;;;;;13.35;2.33;;;;;;;12.97;80.38;101010.28;5004542;28;20042;-63
2022/11/03 06:23:34;;;;;;;11.35;2.08;;;;;;;12.95;80.30;101004.25;5004424;28;20021;-63
2022/11/03 06:26:01;;;;;;;9.75;2.17;;;;;;;12.94;80.54;100998.22;5001889;28;20072;-63
2022/11/03 06:28:35;;;;;;;13.63;2.45;;;;;;;12.98;80.36;101001.72;5004706;28;20037;-63
2022/11/03 06:31:01;;;;;;;11.57;2.20;;;;;;;12.97;80.49;101003.41;5004116;28;20026;-63
2022/11/03 06:33:32;;;;;;;12.13;2.50;;;;;;;12.96;80.72;101000.81;5001073;28;20618;-63
2022/11/03 06:36:02;;;;;;;13.38;2.25;;;;;;;12.95;80.59;100986.19;5003586;28;20125;-63
2022/11/03 06:38:30;;;;;;;13.55;2.30;;;;;;;12.99;80.67;100995.72;4999992;28;20511;-63
2022/11/03 06:40:56;;;;;;;12.15;2.47;;;;;;;12.96;80.79;100995.66;5001755;28;20045;-63
2022/11/03 06:43:27;;;;;;;13.38;2.30;;;;;;;12.97;80.49;100997.38;5007991;28;20029;-63
2022/11/03 06:46:11;;;;;;;15.40;2.28;;;;;;;13.01;80.51;100997.50;5003682;28;20038;-63
2022/11/03 06:48:38;;;;;;;11.40;2.50;;;;;;;12.97;81.07;100994.81;4987362;28;20033;-63
2022/11/03 06:51:15;;;;;;;12.50;2.47;;;;;;;13.02;80.72;100993.19;5003697;28;20029;-63
2022/11/03 06:53:40;;;;;;;12.27;2.00;;;;;;;12.98;81.10;100989.66;5000912;28;20093;-63
2022/11/03 06:56:11;;;;;;;8.88;2.05;;;;;;;13.00;80.70;100981.97;5006443;28;20042;-63
2022/11/03 06:58:37;;;;;;;8.43;2.13;;;;;;;13.00;80.96;100981.97;5002135;28;20041;-63
2022/11/03 07:01:13;;;;;;;11.30;2.22;;;;;;;13.01;80.65;100983.72;5005201;28;20496;-63
2022/11/03 07:03:38;;;;;;;13.93;2.40;;;;;;;13.03;80.61;100989.78;4984913;28;20029;-63
2022/11/03 07:06:10;;;;;;;9.20;2.13;;;;;;;13.04;80.64;100979.50;5002602;28;20042;-63
2022/11/03 07:08:42;;;;;;;10.88;2.30;;;;;;;13.03;80.57;100977.72;4997858;28;21929;-63
2022/11/03 07:11:16;;;;;;;12.40;2.60;;;;;;;13.04;80.35;100976.91;4998798;28;20161;-63
2022/11/03 07:13:42;;;;;;;13.30;2.60;;;;;;;13.05;80.48;100972.63;5000862;28;20088;-63
2022/11/03 07:16:18;;;;;;;9.88;2.30;;;;;;;13.06;80.68;100971.78;5000665;28;20033;-63
2022/11/03 07:18:44;;;;;;;13.18;2.10;;;;;;;13.05;80.40;100967.47;4999649;28;20038;-63
2022/11/03 07:21:27;;;;;;;14.80;2.58;;;;;;;13.08;80.23;100965.78;5001623;28;20029;-61
2022/11/03 07:23:52;;;;;;;11.05;2.17;;;;;;;13.07;80.24;100965.75;4997053;28;20032;-62
2022/11/03 07:26:18;;;;;;;11.63;2.20;;;;;;;13.04;80.31;100958.84;5002387;28;20030;-62
2022/11/03 07:28:43;;;;;;;11.30;2.53;;;;;;;13.07;80.21;100960.59;4981739;28;20041;-63
2022/11/03 07:31:17;;;;;;;12.07;2.30;;;;;;;13.10;79.74;100958.06;5000611;28;20033;-64
2022/11/03 07:33:43;;;;;;;11.50;2.15;;;;;;;13.09;79.80;100958.91;4998066;28;20034;-63
2022/11/03 07:36:14;;;;;;;10.23;2.70;;;;;;;13.09;79.82;100957.19;4997481;28;20046;-64
2022/11/03 07:38:42;;;;;;;12.02;2.20;;;;;;;13.09;79.77;100952.03;4999308;28;20058;-64
2022/11/03 07:41:15;;;;;;;9.05;2.08;;;;;;;13.11;79.64;100950.38;4999971;28;20632;-64
2022/11/03 07:43:40;;;;;;;13.10;2.13;;;;;;;13.10;79.56;100945.16;5001913;28;20030;-64
2022/11/03 07:46:14;;;;;;;6.55;1.95;;;;;;;13.14;79.35;100940.09;5000086;28;20098;-64
2022/11/03 07:48:47;;;;;;;12.23;2.15;;;;;;;13.15;79.05;100941.81;5001955;28;20038;-64
2022/11/03 07:51:32;;;;;;;10.25;2.10;;;;;;;13.17;79.32;100946.16;4998489;28;20601;-64
2022/11/03 07:54:01;;;;;;;10.35;2.00;;;;;;;13.18;79.24;100942.75;4997783;28;20030;-64
2022/11/03 07:56:41;;;;;;;8.20;2.10;;;;;;;13.20;78.92;100943.63;4999296;28;20025;-64
2022/11/03 07:59:10;;;;;;;12.48;2.28;;;;;;;13.20;78.91;100949.66;5001154;28;20029;-64
2022/11/03 08:01:39;;;;;;;15.05;2.22;;;;;;;13.19;78.54;100945.34;4996955;28;20751;-64
2022/11/03 08:04:09;;;;;;;14.38;2.13;;;;;;;13.19;78.83;100947.06;5000680;28;20472;-64
2022/11/03 08:06:34;;;;;;;14.45;2.55;;;;;;;13.19;78.83;100945.34;5001735;28;20091;-64
2022/11/03 08:08:59;;;;;;;15.25;2.75;;;;;;;13.20;78.82;100941.91;4997589;28;20033;-64
2022/11/03 08:11:25;;;;;;;12.80;2.42;;;;;;;13.17;78.74;100928.97;4997535;28;20113;-64
2022/11/03 08:13:51;;;;;;;11.13;2.30;;;;;;;13.22;78.40;100937.66;5002053;28;20053;-65
2022/11/03 08:16:17;;;;;;;9.32;2.08;;;;;;;13.23;78.42;100926.53;5000296;28;20034;-65
2022/11/03 08:18:42;;;;;;;10.10;3.15;;;;;;;13.24;78.10;100920.50;4998336;28;20496;-65
2022/11/03 08:21:07;;;;;;;13.30;2.28;;;;;;;13.25;78.33;100911.91;4999390;28;20053;-64
2022/11/03 08:23:33;;;;;;;14.05;2.55;;;;;;;13.26;78.05;100905.03;4999693;28;20034;-64
2022/11/03 08:25:58;;;;;;;10.23;2.30;;;;;;;13.26;77.94;100911.06;4986400;28;20045;-65
2022/11/03 08:28:24;;;;;;;9.75;1.80;;;;;;;13.28;77.88;100890.44;4999700;28;20477;-65
2022/11/03 08:30:49;;;;;;;11.07;2.25;;;;;;;13.30;77.87;100883.59;4996423;28;20040;-65
2022/11/03 08:33:15;;;;;;;11.02;2.20;;;;;;;13.31;77.73;100875.88;5000879;28;20569;-64
2022/11/03 08:35:40;;;;;;;9.05;2.15;;;;;;;13.32;77.57;100875.03;5002975;28;20061;-64
2022/11/03 08:38:06;;;;;;;9.15;2.17;;;;;;;13.34;77.61;100878.50;4983970;28;20036;-64
2022/11/03 08:40:31;;;;;;;11.70;2.50;;;;;;;13.38;77.25;100872.53;5002750;28;20050;-63
2022/11/03 08:42:56;;;;;;;13.85;2.38;;;;;;;13.38;77.30;100851.88;5005165;28;20495;-64
2022/11/03 08:45:22;;;;;;;14.70;2.40;;;;;;;13.40;77.24;100852.78;5000681;28;20038;-66
2022/11/03 08:47:47;;;;;;;7.78;1.75;;;;;;;13.43;76.96;100841.63;5003686;28;20036;-66
2022/11/03 08:50:13;;;;;;;10.27;2.40;;;;;;;13.44;76.96;100825.28;5002999;28;20464;-64
2022/11/03 08:52:38;;;;;;;11.40;2.22;;;;;;;13.46;76.68;100817.56;5001851;28;20751;-64
2022/11/03 08:55:05;;;;;;;11.05;2.20;;;;;;;13.48;76.50;100813.31;4969049;28;20030;-64
2022/11/03 08:57:30;;;;;;;14.82;2.47;;;;;;;13.51;76.57;100823.66;5005334;28;20044;-64
2022/11/03 08:59:55;;;;;;;8.57;2.13;;;;;;;13.49;76.67;100817.63;5003241;28;20030;-64
2022/11/03 09:02:21;;;;;;;8.10;1.90;;;;;;;13.55;76.38;100808.25;4999316;28;20493;-64
2022/11/03 09:04:47;;;;;;;10.13;2.03;;;;;;;13.56;76.28;100809.97;5003786;28;20044;-63
2022/11/03 09:07:12;;;;;;;9.00;2.17;;;;;;;13.61;76.68;100797.13;5004152;28;20133;-64
2022/11/03 09:09:37;;;;;;;10.55;2.25;;;;;;;13.62;76.06;100778.19;5005889;28;20076;-65
2022/11/03 09:12:03;;;;;;;10.27;1.75;;;;;;;13.64;75.81;100782.53;4989135;28;20710;-64
2022/11/03 09:14:28;;;;;;;15.77;2.42;;;;;;;13.69;75.56;100777.44;5006278;28;20054;-64
2022/11/03 09:16:54;;;;;;;8.43;2.10;;;;;;;13.74;75.55;100774.91;4987722;28;20114;-64
2022/11/03 09:19:19;;;;;;;7.25;1.77;;;;;;;13.76;75.56;100760.28;4995947;28;20034;-65
2022/11/03 09:21:44;;;;;;;11.52;2.20;;;;;;;13.79;74.94;100748.28;5007739;28;20041;-64
2022/11/03 09:24:10;;;;;;;7.75;2.03;;;;;;;13.80;75.11;100744.84;5004792;28;20391;-63
2022/11/03 09:26:36;;;;;;;7.75;1.80;;;;;;;13.85;74.60;100738.03;4987444;28;20038;-65
2022/11/03 09:29:01;;;;;;;8.38;1.98;;;;;;;13.87;74.19;100723.41;5005743;28;20033;-64
2022/11/03 09:31:28;;;;;;;8.32;1.80;;;;;;;13.88;74.49;100713.94;5003513;28;20041;-65
2022/11/03 09:33:53;;;;;;;8.18;1.90;;;;;;;13.89;74.20;100708.81;5006374;28;20033;-64
2022/11/03 09:36:19;;;;;;;7.53;2.00;;;;;;;13.91;74.31;100704.50;5006123;28;20070;-64
2022/11/03 09:38:44;;;;;;;6.70;1.90;;;;;;;13.92;74.49;100706.25;5006446;28;20045;-64
2022/11/03 09:41:16;;;;;;;10.07;2.10;;;;;;;13.94;74.34;100696.78;5004175;28;20034;-64
2022/11/03 09:43:46;;;;;;;12.10;2.03;;;;;;;13.94;74.50;100694.19;5008132;28;20032;-64
2022/11/03 09:46:12;;;;;;;10.95;2.10;;;;;;;13.94;74.13;100694.19;5002066;28;20099;-64
2022/11/03 09:48:38;;;;;;;13.50;2.50;;;;;;;13.93;74.48;100682.13;4988198;28;20489;-64
2022/11/03 09:51:04;;;;;;;11.55;2.75;;;;;;;13.95;74.28;100688.19;5005355;28;20029;-64
2022/11/03 09:53:30;;;;;;;8.15;2.28;;;;;;;13.96;74.31;100676.13;5004869;28;20498;-64
2022/11/03 09:55:55;;;;;;;10.07;2.22;;;;;;;13.96;74.84;100681.31;5004988;28;20026;-63
2022/11/03 09:58:21;;;;;;;12.75;2.28;;;;;;;13.98;74.96;100676.13;4989194;28;20037;-64
2022/11/03 10:00:46;;;;;;;14.10;2.40;;;;;;;13.99;74.89;100675.28;5008974;28;20496;-64
2022/11/03 10:03:15;;;;;;;10.55;2.25;;;;;;;14.00;75.02;100653.75;5009927;28;20049;-64
2022/11/03 10:05:43;;;;;;;11.27;2.22;;;;;;;14.00;74.88;100659.78;5008733;28;20030;-64
2022/11/03 10:08:31;;;;;;;10.32;2.15;;;;;;;14.04;74.86;100658.97;5001209;28;20036;-64
2022/11/03 10:10:57;;;;;;;8.95;2.00;;;;;;;14.03;74.57;100651.22;4999996;28;20025;-64
2022/11/03 10:13:48;;;;;;;10.93;2.00;;;;;;;14.07;74.32;100659.00;5011573;28;20030;-64
2022/11/03 10:16:17;;;;;;;10.00;2.25;;;;;;;14.05;73.89;100646.91;5008610;28;20120;-64
2022/11/03 10:18:43;;;;;;;9.25;2.15;;;;;;;14.07;73.78;100647.78;5004727;28;20076;-64
2022/11/03 10:21:22;;;;;;;10.60;2.00;;;;;;;14.07;73.72;100643.47;5007534;28;20049;-64
2022/11/03 10:23:49;;;;;;;10.25;2.15;;;;;;;14.04;73.21;100635.72;5004487;28;20107;-64
2022/11/03 10:26:17;;;;;;;12.20;2.20;;;;;;;14.01;73.35;100629.63;5004184;28;20507;-64
2022/11/03 10:29:03;;;;;;;7.60;1.73;;;;;;;14.06;72.89;100630.53;5008103;28;20512;-63
2022/11/03 10:31:37;;;;;;;10.40;2.15;;;;;;;14.05;73.42;100634.84;5010808;28;20111;-64
2022/11/03 10:34:04;;;;;;;11.00;1.98;;;;;;;14.02;73.12;100626.22;5010536;28;20041;-64
2022/11/03 10:36:32;;;;;;;6.50;1.98;;;;;;;13.98;73.76;100608.94;5009259;28;20076;-64
2022/11/03 10:39:00;;;;;;;10.68;2.00;;;;;;;14.04;73.24;100611.56;5009730;28;20113;-63
2022/11/03 10:41:29;;;;;;;9.13;2.08;;;;;;;14.06;73.51;100615.03;5008508;28;20028;-64
2022/11/03 10:43:57;;;;;;;;;;;;;;;14.16;73.15;100591.88;4999394;28;20480;-63
2022/11/03 10:46:23;;;;;;;7.13;1.88;;;;;;;14.10;72.70;100602.16;5003890;28;19914;-63
2022/11/03 10:49:08;;;;;;;9.02;2.10;;;;;;;14.14;72.90;100597.91;5004803;28;20030;-64
2022/11/03 10:51:34;;;;;;;10.65;2.13;;;;;;;14.13;72.74;100588.38;4991580;28;20053;-64
2022/11/03 10:54:05;;;;;;;11.30;2.03;;;;;;;14.15;72.81;100589.28;5010741;28;20030;-63
2022/11/03 10:56:34;;;;;;;11.93;1.92;;;;;;;14.18;73.17;100584.13;5007613;28;20536;-63
2022/11/03 10:59:01;;;;;;;8.63;2.00;;;;;;;14.19;72.68;100585.84;5000913;28;20131;-64
2022/11/03 11:01:26;;;;;;;9.10;2.17;;;;;;;14.21;72.25;100584.16;5003198;28;20034;-65
2022/11/03 11:03:52;;;;;;;6.90;2.17;;;;;;;14.22;72.40;100573.81;5006207;28;20036;-65
2022/11/03 11:06:25;;;;;;;9.13;1.98;;;;;;;14.26;72.47;100572.16;5007871;28;20113;-65
2022/11/03 11:08:56;;;;;;;6.75;1.98;;;;;;;14.24;72.29;100560.91;5009303;28;20087;-65
2022/11/03 11:11:23;;;;;;;7.50;2.20;;;;;;;14.30;71.94;100568.72;5011475;28;20033;-65
2022/11/03 11:14:26;;;;;;;9.30;1.80;;;;;;;14.38;71.78;100571.38;5006188;28;20036;-65
2022/11/03 11:16:54;;;;;;;11.23;2.22;;;;;;;14.40;72.01;100565.34;5002788;28;20096;-65
2022/11/03 11:19:21;;;;;;;8.10;1.85;;;;;;;14.42;70.90;100560.19;5003500;28;20037;-65
2022/11/03 11:21:46;;;;;;;7.25;1.83;;;;;;;14.43;71.13;100555.00;5006007;28;20048;-65
2022/11/03 11:24:12;;;;;;;9.85;1.83;;;;;;;14.44;70.48;100549.00;5002756;28;20029;-65
2022/11/03 11:26:38;;;;;;;6.60;1.67;;;;;;;14.43;70.29;100542.06;5006099;28;20374;-65
2022/11/03 11:29:07;;;;;;;12.48;2.03;;;;;;;14.47;70.30;100540.44;5001855;28;20029;-65
2022/11/03 11:31:36;;;;;;;6.70;1.70;;;;;;;14.47;69.77;100524.91;4996959;28;20029;-64
2022/11/03 11:34:22;;;;;;;6.55;1.75;;;;;;;14.54;70.20;100525.81;5000953;28;20137;-64
2022/11/03 11:36:53;;;;;;;8.05;1.90;;;;;;;14.55;70.10;100509.41;4991702;28;20137;-64
2022/11/03 11:39:19;;;;;;;9.00;2.47;;;;;;;14.56;69.68;100504.28;5002008;28;20080;-64
2022/11/03 11:42:03;;;;;;;7.20;1.88;;;;;;;14.61;69.16;100496.50;5005287;28;20025;-66
2022/11/03 11:44:51;;;;;;;5.38;1.70;;;;;;;14.62;69.19;100483.63;5006239;28;20041;-65
2022/11/03 11:47:45;;;;;;;10.45;1.90;;;;;;;14.69;69.63;100481.91;5001382;28;20025;-65
2022/11/03 11:50:13;;;;;;;7.45;1.92;;;;;;;14.70;69.34;100470.72;4995081;28;20042;-65
2022/11/03 11:53:00;;;;;;;7.50;1.80;;;;;;;14.71;68.90;100452.59;5003338;28;20080;-66